Terminal Aerodrome Forecast
Issued by NWS

Home | Current Version | Previous Version | Graphics & Text | Print | Product List | Glossary On
Versions: 1 2 3 4 5 6 7 8 9 10 11 12 13 14 15 16 17 18 19 20 21 22
639
FTUS43 KBIS 252330
TAFJMS
TAF
KJMS 252330Z 2600/2624 16008KT P6SM VCTS SCT040CB BKN150
     FM260200 12006KT P6SM VCTS BKN040CB OVC150
      TEMPO 2602/2605 VRB20G30KT 2SM TSRA BKN030CB OVC040
     FM260500 25006KT P6SM VCTS BKN040CB BKN100
     FM261000 27007KT P6SM SCT110
     FM261400 27011KT P6SM SCT080
      AMD NOT SKED=

USA.gov is the U.S. government's official web portal to all federal, state and local government web resources and services.